SWA202 EGKK-EGNX
Flight info
| Callsign | SWA202 |
|---|---|
| Flight time | 0h 26m |
| Altitude | 18000 |
| Route | LAM N57 WELIN |
| Aircraft | B738/M-SDE2E3FGHIRWXY/LB1 |
Departure
| Time | 2026-04-16 21:41 |
|---|---|
| Airport | London Gatwick Airport (EGKK) |
Arrival
| Time | 2026-04-16 22:08 |
|---|---|
| Airport | East Midlands Airport (EGNX) |
| Time | Latitude | Longitude | Altitude | Speed | Heading |
|---|---|---|---|---|---|
| 2026-04-16 21:03 | 51.15486 | -0.16893 | 207 ft | 0 kts | 349° |
| 2026-04-16 21:29 | 51.15483 | -0.16892 | 208 ft | 3 kts | 349° |
| 2026-04-16 21:30 | 51.15457 | -0.16886 | 212 ft | 4 kts | 6° |
| 2026-04-16 21:30 | 51.15443 | -0.16891 | 205 ft | 4 kts | 55° |
| 2026-04-16 21:30 | 51.15440 | -0.16900 | 215 ft | 1 kts | 77° |
| 2026-04-16 21:35 | 51.15440 | -0.16899 | 211 ft | 1 kts | 77° |
| 2026-04-16 21:35 | 51.15444 | -0.16873 | 202 ft | 4 kts | 77° |
| 2026-04-16 21:35 | 51.15453 | -0.16799 | 204 ft | 9 kts | 82° |
| 2026-04-16 21:36 | 51.15447 | -0.16680 | 206 ft | 16 kts | 85° |
| 2026-04-16 21:36 | 51.15463 | -0.16572 | 209 ft | 9 kts | 77° |
| 2026-04-16 21:36 | 51.15426 | -0.16512 | 203 ft | 9 kts | 162° |
| 2026-04-16 21:36 | 51.15369 | -0.16489 | 200 ft | 8 kts | 168° |
| 2026-04-16 21:37 | 51.15315 | -0.16474 | 200 ft | 7 kts | 175° |
| 2026-04-16 21:37 | 51.15300 | -0.16510 | 206 ft | 4 kts | 258° |
| 2026-04-16 21:37 | 51.15294 | -0.16557 | 204 ft | 4 kts | 258° |
| 2026-04-16 21:37 | 51.15287 | -0.16606 | 209 ft | 6 kts | 256° |
| 2026-04-16 21:38 | 51.15271 | -0.16647 | 212 ft | 3 kts | 209° |
| 2026-04-16 21:38 | 51.15246 | -0.16645 | 208 ft | 4 kts | 166° |
| 2026-04-16 21:38 | 51.15243 | -0.16644 | 209 ft | 0 kts | 171° |
| 2026-04-16 21:39 | 51.15228 | -0.16641 | 205 ft | 8 kts | 172° |
| 2026-04-16 21:40 | 51.15164 | -0.16634 | 202 ft | 10 kts | 197° |
| 2026-04-16 21:40 | 51.15130 | -0.16724 | 198 ft | 9 kts | 256° |
| 2026-04-16 21:40 | 51.15127 | -0.16746 | 206 ft | 0 kts | 256° |
| 2026-04-16 21:41 | 51.15100 | -0.16924 | 208 ft | 49 kts | 257° |
| 2026-04-16 21:41 | 51.14974 | -0.17838 | 211 ft | 116 kts | 257° |
| 2026-04-16 21:41 | 51.14762 | -0.19376 | 239 ft | 166 kts | 256° |
| 2026-04-16 21:41 | 51.14565 | -0.21140 | 1067 ft | 154 kts | 259° |
| 2026-04-16 21:42 | 51.14381 | -0.22740 | 2215 ft | 128 kts | 253° |
| 2026-04-16 21:42 | 51.14205 | -0.24015 | 2840 ft | 127 kts | 254° |
| 2026-04-16 21:42 | 51.13995 | -0.25544 | 3103 ft | 153 kts | 255° |
| 2026-04-16 21:42 | 51.13742 | -0.27354 | 3401 ft | 182 kts | 258° |
| 2026-04-16 21:43 | 51.13840 | -0.29505 | 3614 ft | 211 kts | 285° |
| 2026-04-16 21:43 | 51.14675 | -0.31524 | 3950 ft | 228 kts | 312° |
| 2026-04-16 21:43 | 51.16103 | -0.32718 | 3992 ft | 241 kts | 344° |
| 2026-04-16 21:43 | 51.17791 | -0.32536 | 3988 ft | 250 kts | 18° |
| 2026-04-16 21:44 | 51.19193 | -0.30931 | 3987 ft | 253 kts | 53° |
| 2026-04-16 21:44 | 51.19843 | -0.28376 | 3986 ft | 249 kts | 85° |
| 2026-04-16 21:44 | 51.19997 | -0.25629 | 3987 ft | 251 kts | 87° |
| 2026-04-16 21:44 | 51.20191 | -0.22837 | 3966 ft | 255 kts | 85° |
| 2026-04-16 21:45 | 51.20421 | -0.20071 | 3985 ft | 253 kts | 83° |
| 2026-04-16 21:45 | 51.20753 | -0.17167 | 4024 ft | 274 kts | 81° |
| 2026-04-16 21:45 | 51.21140 | -0.14132 | 4097 ft | 284 kts | 80° |
| 2026-04-16 21:45 | 51.21544 | -0.11058 | 4746 ft | 287 kts | 80° |
| 2026-04-16 21:46 | 51.21958 | -0.07918 | 4985 ft | 292 kts | 80° |
| 2026-04-16 21:46 | 51.22374 | -0.04758 | 4981 ft | 289 kts | 80° |
| 2026-04-16 21:46 | 51.22783 | -0.01636 | 4978 ft | 286 kts | 81° |
| 2026-04-16 21:46 | 51.23187 | 0.01463 | 4855 ft | 285 kts | 80° |
| 2026-04-16 21:47 | 51.23590 | 0.04570 | 4851 ft | 287 kts | 80° |
| 2026-04-16 21:47 | 51.23995 | 0.07695 | 4841 ft | 288 kts | 80° |
| 2026-04-16 21:47 | 51.24401 | 0.10840 | 4816 ft | 290 kts | 80° |
| 2026-04-16 21:47 | 51.24807 | 0.13983 | 4794 ft | 290 kts | 80° |
| 2026-04-16 21:48 | 51.25208 | 0.17106 | 4761 ft | 289 kts | 81° |
| 2026-04-16 21:48 | 51.25611 | 0.20265 | 4737 ft | 288 kts | 81° |
| 2026-04-16 21:48 | 51.25951 | 0.23008 | 4727 ft | 287 kts | 81° |
| 2026-04-16 21:48 | 51.26335 | 0.26140 | 4717 ft | 285 kts | 81° |
| 2026-04-16 21:49 | 51.26714 | 0.29252 | 4705 ft | 285 kts | 81° |
| 2026-04-16 21:49 | 51.27089 | 0.32321 | 4698 ft | 284 kts | 80° |
| 2026-04-16 21:49 | 51.27844 | 0.35215 | 4673 ft | 286 kts | 50° |
| 2026-04-16 21:49 | 51.29414 | 0.37080 | 4674 ft | 282 kts | 18° |
| 2026-04-16 21:50 | 51.31320 | 0.37535 | 4705 ft | 274 kts | 351° |
| 2026-04-16 21:50 | 51.33136 | 0.36773 | 4981 ft | 269 kts | 332° |
| 2026-04-16 21:50 | 51.34846 | 0.35561 | 4975 ft | 270 kts | 331° |
| 2026-04-16 21:50 | 51.36565 | 0.34324 | 4969 ft | 271 kts | 332° |
| 2026-04-16 21:51 | 51.38293 | 0.33103 | 4962 ft | 271 kts | 332° |
| 2026-04-16 21:51 | 51.40019 | 0.31891 | 4961 ft | 271 kts | 332° |
| 2026-04-16 21:51 | 51.41750 | 0.30681 | 4942 ft | 271 kts | 332° |
| 2026-04-16 21:51 | 51.43505 | 0.29485 | 5194 ft | 276 kts | 332° |
| 2026-04-16 21:52 | 51.45271 | 0.28294 | 5908 ft | 277 kts | 332° |
| 2026-04-16 21:52 | 51.47051 | 0.27093 | 6237 ft | 279 kts | 332° |
| 2026-04-16 21:52 | 51.48832 | 0.25891 | 6255 ft | 275 kts | 332° |
| 2026-04-16 21:52 | 51.50592 | 0.24703 | 6279 ft | 274 kts | 332° |
| 2026-04-16 21:53 | 51.52359 | 0.23507 | 6291 ft | 276 kts | 332° |
| 2026-04-16 21:53 | 51.54119 | 0.22315 | 6284 ft | 277 kts | 332° |
| 2026-04-16 21:53 | 51.55906 | 0.21105 | 6285 ft | 278 kts | 332° |
| 2026-04-16 21:53 | 51.57688 | 0.19897 | 6285 ft | 279 kts | 333° |
| 2026-04-16 21:54 | 51.59454 | 0.18699 | 6282 ft | 279 kts | 333° |
| 2026-04-16 21:54 | 51.61243 | 0.17485 | 6274 ft | 279 kts | 333° |
| 2026-04-16 21:54 | 51.63029 | 0.16272 | 6276 ft | 278 kts | 333° |
| 2026-04-16 21:54 | 51.64763 | 0.14932 | 6254 ft | 274 kts | 319° |
| 2026-04-16 21:55 | 51.66146 | 0.12844 | 6556 ft | 274 kts | 309° |
| 2026-04-16 21:55 | 51.67403 | 0.10745 | 7323 ft | 274 kts | 309° |
| 2026-04-16 21:55 | 51.69409 | 0.07399 | 8421 ft | 281 kts | 309° |
| 2026-04-16 21:55 | 51.75073 | -0.02002 | 11148 ft | 303 kts | 309° |
| 2026-04-16 21:56 | 51.81418 | -0.12523 | 12979 ft | 354 kts | 310° |
| 2026-04-16 21:56 | 51.88692 | -0.24583 | 15141 ft | 386 kts | 310° |
| 2026-04-16 21:56 | 51.96271 | -0.37195 | 17804 ft | 394 kts | 309° |
| 2026-04-16 21:56 | 52.02398 | -0.47460 | 18365 ft | 397 kts | 309° |
| 2026-04-16 21:57 | 52.06110 | -0.53678 | 18166 ft | 369 kts | 308° |
| 2026-04-16 21:57 | 52.09549 | -0.59459 | 18118 ft | 340 kts | 307° |
| 2026-04-16 21:57 | 52.14391 | -0.67632 | 18044 ft | 301 kts | 307° |
| 2026-04-16 21:57 | 52.15810 | -0.70039 | 18073 ft | 287 kts | 306° |
| 2026-04-16 21:58 | 52.17160 | -0.72335 | 18096 ft | 274 kts | 306° |
| 2026-04-16 21:58 | 52.18599 | -0.74787 | 18127 ft | 264 kts | 306° |
| 2026-04-16 21:58 | 52.22809 | -0.81960 | 18109 ft | 252 kts | 305° |
| 2026-04-16 21:58 | 52.24015 | -0.84023 | 18084 ft | 257 kts | 305° |
| 2026-04-16 21:59 | 52.25687 | -0.86368 | 17701 ft | 271 kts | 319° |
| 2026-04-16 21:59 | 52.32365 | -0.92830 | 16016 ft | 291 kts | 322° |
| 2026-04-16 21:59 | 52.39500 | -0.99874 | 14506 ft | 302 kts | 324° |
| 2026-04-16 21:59 | 52.47385 | -0.99031 | 13174 ft | 323 kts | 17° |
| 2026-04-16 22:00 | 52.54030 | -0.95602 | 12416 ft | 311 kts | 12° |
| 2026-04-16 22:00 | 52.56090 | -0.94708 | 12346 ft | 302 kts | 11° |
| 2026-04-16 22:00 | 52.58101 | -0.93905 | 12256 ft | 291 kts | 2° |
| 2026-04-16 22:00 | 52.60033 | -0.94222 | 12108 ft | 274 kts | 337° |
| 2026-04-16 22:01 | 52.61820 | -0.95222 | 11845 ft | 271 kts | 334° |
| 2026-04-16 22:01 | 52.63599 | -0.96306 | 11534 ft | 272 kts | 334° |
| 2026-04-16 22:01 | 52.67455 | -0.98668 | 10999 ft | 270 kts | 334° |
| 2026-04-16 22:01 | 52.69212 | -0.99733 | 10735 ft | 270 kts | 334° |
| 2026-04-16 22:02 | 52.70975 | -1.00797 | 10495 ft | 269 kts | 335° |
| 2026-04-16 22:02 | 52.72738 | -1.01857 | 10258 ft | 269 kts | 335° |
| 2026-04-16 22:02 | 52.74494 | -1.02911 | 10064 ft | 267 kts | 335° |
| 2026-04-16 22:02 | 52.76198 | -1.03929 | 10037 ft | 253 kts | 335° |
| 2026-04-16 22:03 | 52.77812 | -1.04895 | 9954 ft | 240 kts | 335° |
| 2026-04-16 22:03 | 52.79328 | -1.05802 | 9834 ft | 223 kts | 335° |
| 2026-04-16 22:03 | 52.80739 | -1.06646 | 9621 ft | 210 kts | 334° |
| 2026-04-16 22:03 | 52.82111 | -1.07476 | 9196 ft | 208 kts | 333° |
| 2026-04-16 22:04 | 52.83200 | -1.08754 | 8780 ft | 183 kts | 293° |
| 2026-04-16 22:04 | 52.83464 | -1.10681 | 8191 ft | 172 kts | 264° |
| 2026-04-16 22:04 | 52.83531 | -1.12635 | 7586 ft | 171 kts | 268° |
| 2026-04-16 22:04 | 52.83547 | -1.13359 | 3072 ft | 0 kts | 260° |
| 2026-04-16 22:05 | 52.83415 | -1.15108 | 3143 ft | 140 kts | 262° |
| 2026-04-16 22:05 | 52.83379 | -1.16748 | 2626 ft | 144 kts | 264° |
| 2026-04-16 22:05 | 52.83351 | -1.18414 | 2312 ft | 147 kts | 264° |
| 2026-04-16 22:05 | 52.83323 | -1.20114 | 2279 ft | 147 kts | 264° |
| 2026-04-16 22:06 | 52.83304 | -1.21832 | 2047 ft | 150 kts | 265° |
| 2026-04-16 22:06 | 52.83262 | -1.25406 | 1055 ft | 152 kts | 263° |
| 2026-04-16 22:06 | 52.83219 | -1.27132 | 721 ft | 146 kts | 265° |
| 2026-04-16 22:07 | 52.83182 | -1.28813 | 579 ft | 149 kts | 265° |
| 2026-04-16 22:07 | 52.83141 | -1.30549 | 371 ft | 148 kts | 265° |
| 2026-04-16 22:07 | 52.83110 | -1.32135 | 303 ft | 122 kts | 268° |
| 2026-04-16 22:07 | 52.83089 | -1.33174 | 306 ft | 59 kts | 267° |
| 2026-04-16 22:08 | 52.83085 | -1.33550 | 310 ft | 21 kts | 269° |
| 2026-04-16 22:08 | 52.83083 | -1.33776 | 309 ft | 19 kts | 269° |
| 2026-04-16 22:08 | 52.83078 | -1.33988 | 309 ft | 17 kts | 268° |
| 2026-04-16 22:08 | 52.83074 | -1.34173 | 309 ft | 15 kts | 268° |
| 2026-04-16 22:09 | 52.83071 | -1.34345 | 309 ft | 14 kts | 269° |
| 2026-04-16 22:09 | 52.83069 | -1.34494 | 310 ft | 11 kts | 268° |
| 2026-04-16 22:09 | 52.83063 | -1.34606 | 312 ft | 8 kts | 249° |
| 2026-04-16 22:09 | 52.83027 | -1.34653 | 312 ft | 6 kts | 205° |
| 2026-04-16 22:10 | 52.83004 | -1.34664 | 312 ft | 0 kts | 187° |
| 2026-04-16 22:10 | 52.83003 | -1.34664 | 311 ft | 0 kts | 187° |
| 2026-04-16 22:11 | 52.82999 | -1.34665 | 311 ft | 0 kts | 184° |
| 2026-04-16 22:11 | 52.82994 | -1.34665 | 312 ft | 0 kts | 182° |
| 2026-04-16 22:11 | 52.82993 | -1.34665 | 312 ft | 0 kts | 181° |